sensor_id;sensor_type;location;lat;lon;timestamp;pressure;altitude;pressure_sealevel;temperature;humidity
36380;BME280;22411;53.016;18.632;2023-04-08T00:00:13;101245.38;;;6.33;100.00
36380;BME280;22411;53.016;18.632;2023-04-08T00:03:01;101244.72;;;6.28;100.00
36380;BME280;22411;53.016;18.632;2023-04-08T00:05:27;101248.38;;;6.22;100.00
36380;BME280;22411;53.016;18.632;2023-04-08T00:07:53;101258.00;;;6.17;100.00
36380;BME280;22411;53.016;18.632;2023-04-08T00:10:19;101254.78;;;6.12;100.00
36380;BME280;22411;53.016;18.632;2023-04-08T00:12:46;101263.50;;;6.08;100.00
36380;BME280;22411;53.016;18.632;2023-04-08T00:15:12;101261.03;;;6.05;100.00
36380;BME280;22411;53.016;18.632;2023-04-08T00:17:40;101261.19;;;6.00;100.00
36380;BME280;22411;53.016;18.632;2023-04-08T00:20:06;101257.84;;;5.98;100.00
36380;BME280;22411;53.016;18.632;2023-04-08T00:22:32;101264.81;;;5.96;100.00
36380;BME280;22411;53.016;18.632;2023-04-08T00:24:58;101259.00;;;5.91;100.00
36380;BME280;22411;53.016;18.632;2023-04-08T00:27:24;101263.44;;;5.86;100.00
36380;BME280;22411;53.016;18.632;2023-04-08T00:29:50;101267.84;;;5.83;100.00
36380;BME280;22411;53.016;18.632;2023-04-08T00:32:17;101264.59;;;5.77;100.00
36380;BME280;22411;53.016;18.632;2023-04-08T00:34:43;101258.84;;;5.71;100.00
36380;BME280;22411;53.016;18.632;2023-04-08T00:37:09;101264.16;;;5.66;100.00
36380;BME280;22411;53.016;18.632;2023-04-08T00:39:36;101271.94;;;5.65;100.00
36380;BME280;22411;53.016;18.632;2023-04-08T00:42:03;101266.88;;;5.62;100.00
36380;BME280;22411;53.016;18.632;2023-04-08T00:44:29;101266.19;;;5.57;100.00
36380;BME280;22411;53.016;18.632;2023-04-08T00:46:55;101272.34;;;5.53;100.00
36380;BME280;22411;53.016;18.632;2023-04-08T00:49:23;101274.13;;;5.50;100.00
36380;BME280;22411;53.016;18.632;2023-04-08T00:51:49;101281.06;;;5.48;100.00
36380;BME280;22411;53.016;18.632;2023-04-08T00:54:15;101277.75;;;5.45;100.00
36380;BME280;22411;53.016;18.632;2023-04-08T00:56:42;101272.56;;;5.46;100.00
36380;BME280;22411;53.016;18.632;2023-04-08T00:59:08;101284.50;;;5.47;100.00
36380;BME280;22411;53.016;18.632;2023-04-08T01:09:37;101284.34;;;5.27;100.00
36380;BME280;22411;53.016;18.632;2023-04-08T01:12:06;101287.13;;;5.21;100.00
36380;BME280;22411;53.016;18.632;2023-04-08T01:14:34;101286.50;;;5.14;100.00
36380;BME280;22411;53.016;18.632;2023-04-08T01:17:04;101290.03;;;5.12;100.00
36380;BME280;22411;53.016;18.632;2023-04-08T01:19:37;101287.56;;;5.09;100.00
36380;BME280;22411;53.016;18.632;2023-04-08T01:22:15;101283.47;;;5.03;100.00
36380;BME280;22411;53.016;18.632;2023-04-08T01:24:44;101289.53;;;5.01;100.00
36380;BME280;22411;53.016;18.632;2023-04-08T01:27:13;101287.13;;;4.96;100.00
36380;BME280;22411;53.016;18.632;2023-04-08T01:29:40;101296.72;;;4.91;100.00
36380;BME280;22411;53.016;18.632;2023-04-08T01:32:09;101296.81;;;4.88;100.00
36380;BME280;22411;53.016;18.632;2023-04-08T01:34:37;101293.53;;;4.83;100.00
36380;BME280;22411;53.016;18.632;2023-04-08T01:37:07;101292.00;;;4.77;100.00
36380;BME280;22411;53.016;18.632;2023-04-08T01:39:34;101293.81;;;4.75;100.00
36380;BME280;22411;53.016;18.632;2023-04-08T01:42:01;101296.41;;;4.73;100.00
36380;BME280;22411;53.016;18.632;2023-04-08T01:44:28;101293.81;;;4.73;100.00
36380;BME280;22411;53.016;18.632;2023-04-08T01:46:55;101293.00;;;4.73;100.00
36380;BME280;22411;53.016;18.632;2023-04-08T01:49:23;101296.50;;;4.70;100.00
36380;BME280;22411;53.016;18.632;2023-04-08T01:51:50;101302.56;;;4.68;100.00
36380;BME280;22411;53.016;18.632;2023-04-08T01:54:18;101307.75;;;4.66;100.00
36380;BME280;22411;53.016;18.632;2023-04-08T01:56:45;101310.28;;;4.68;100.00
36380;BME280;22411;53.016;18.632;2023-04-08T01:59:13;101308.66;;;4.65;100.00
36380;BME280;22411;53.016;18.632;2023-04-08T02:01:42;101312.13;;;4.64;100.00
36380;BME280;22411;53.016;18.632;2023-04-08T02:04:14;101307.84;;;4.63;100.00
36380;BME280;22411;53.016;18.632;2023-04-08T02:06:40;101311.31;;;4.62;100.00
36380;BME280;22411;53.016;18.632;2023-04-08T02:09:06;101313.94;;;4.61;100.00
36380;BME280;22411;53.016;18.632;2023-04-08T02:11:33;101320.88;;;4.57;100.00
36380;BME280;22411;53.016;18.632;2023-04-08T02:13:59;101320.16;;;4.54;100.00
36380;BME280;22411;53.016;18.632;2023-04-08T02:16:48;101326.13;;;4.54;100.00
36380;BME280;22411;53.016;18.632;2023-04-08T02:19:24;101329.56;;;4.53;100.00
36380;BME280;22411;53.016;18.632;2023-04-08T02:22:04;101327.84;;;4.54;100.00
36380;BME280;22411;53.016;18.632;2023-04-08T02:24:32;101333.00;;;4.52;100.00
36380;BME280;22411;53.016;18.632;2023-04-08T02:27:02;101338.19;;;4.51;100.00
36380;BME280;22411;53.016;18.632;2023-04-08T02:29:33;101334.88;;;4.47;100.00
36380;BME280;22411;53.016;18.632;2023-04-08T02:32:03;101338.34;;;4.46;100.00
36380;BME280;22411;53.016;18.632;2023-04-08T02:34:31;101340.13;;;4.44;100.00
36380;BME280;22411;53.016;18.632;2023-04-08T02:36:57;101341.03;;;4.41;100.00
36380;BME280;22411;53.016;18.632;2023-04-08T02:39:33;101348.84;;;4.38;100.00
36380;BME280;22411;53.016;18.632;2023-04-08T02:42:01;101351.44;;;4.37;100.00
36380;BME280;22411;53.016;18.632;2023-04-08T02:44:28;101346.34;;;4.35;100.00
36380;BME280;22411;53.016;18.632;2023-04-08T02:46:55;101355.72;;;4.36;100.00
36380;BME280;22411;53.016;18.632;2023-04-08T02:49:21;101353.97;;;4.38;100.00
36380;BME280;22411;53.016;18.632;2023-04-08T02:51:47;101354.75;;;4.40;100.00
36380;BME280;22411;53.016;18.632;2023-04-08T02:54:13;101352.28;;;4.37;100.00
36380;BME280;22411;53.016;18.632;2023-04-08T02:56:41;101360.91;;;4.35;100.00
36380;BME280;22411;53.016;18.632;2023-04-08T02:59:07;101360.19;;;4.30;100.00
36380;BME280;22411;53.016;18.632;2023-04-08T03:01:33;101367.13;;;4.28;100.00
36380;BME280;22411;53.016;18.632;2023-04-08T03:03:59;101368.84;;;4.27;100.00
36380;BME280;22411;53.016;18.632;2023-04-08T03:06:25;101371.41;;;4.27;100.00
36380;BME280;22411;53.016;18.632;2023-04-08T03:08:52;101376.44;;;4.30;100.00
36380;BME280;22411;53.016;18.632;2023-04-08T03:11:18;101377.19;;;4.34;100.00
36380;BME280;22411;53.016;18.632;2023-04-08T03:13:44;101380.44;;;4.40;100.00
36380;BME280;22411;53.016;18.632;2023-04-08T03:16:11;101383.66;;;4.47;100.00
36380;BME280;22411;53.016;18.632;2023-04-08T03:18:37;101376.66;;;4.52;100.00
36380;BME280;22411;53.016;18.632;2023-04-08T03:21:03;101379.97;;;4.56;100.00
36380;BME280;22411;53.016;18.632;2023-04-08T03:23:29;101381.59;;;4.60;100.00
36380;BME280;22411;53.016;18.632;2023-04-08T03:25:55;101380.56;;;4.64;100.00
36380;BME280;22411;53.016;18.632;2023-04-08T03:28:21;101381.28;;;4.69;100.00
36380;BME280;22411;53.016;18.632;2023-04-08T03:30:48;101380.31;;;4.73;100.00
36380;BME280;22411;53.016;18.632;2023-04-08T03:33:14;101389.66;;;4.76;100.00
36380;BME280;22411;53.016;18.632;2023-04-08T03:35:41;101390.50;;;4.76;100.00
36380;BME280;22411;53.016;18.632;2023-04-08T03:38:06;101393.97;;;4.75;100.00
36380;BME280;22411;53.016;18.632;2023-04-08T03:40:33;101386.22;;;4.77;100.00
36380;BME280;22411;53.016;18.632;2023-04-08T03:42:59;101395.66;;;4.76;100.00
36380;BME280;22411;53.016;18.632;2023-04-08T03:45:26;101395.69;;;4.75;100.00
36380;BME280;22411;53.016;18.632;2023-04-08T03:47:52;101396.63;;;4.72;100.00
36380;BME280;22411;53.016;18.632;2023-04-08T03:50:18;101397.56;;;4.69;100.00
36380;BME280;22411;53.016;18.632;2023-04-08T03:52:44;101401.94;;;4.66;100.00
36380;BME280;22411;53.016;18.632;2023-04-08T03:55:11;101401.13;;;4.64;100.00
36380;BME280;22411;53.016;18.632;2023-04-08T03:57:37;101409.78;;;4.61;100.00
36380;BME280;22411;53.016;18.632;2023-04-08T04:00:04;101407.22;;;4.61;100.00
36380;BME280;22411;53.016;18.632;2023-04-08T04:02:30;101414.06;;;4.61;100.00
36380;BME280;22411;53.016;18.632;2023-04-08T04:04:57;101411.56;;;4.59;100.00
36380;BME280;22411;53.016;18.632;2023-04-08T04:07:23;101408.16;;;4.59;100.00
36380;BME280;22411;53.016;18.632;2023-04-08T04:09:50;101414.00;;;4.62;100.00
36380;BME280;22411;53.016;18.632;2023-04-08T04:12:18;101411.41;;;4.64;100.00
36380;BME280;22411;53.016;18.632;2023-04-08T04:14:45;101420.81;;;4.65;100.00
36380;BME280;22411;53.016;18.632;2023-04-08T04:17:11;101419.97;;;4.64;100.00
36380;BME280;22411;53.016;18.632;2023-04-08T04:19:37;101421.72;;;4.62;100.00
36380;BME280;22411;53.016;18.632;2023-04-08T04:22:03;101427.81;;;4.58;100.00
36380;BME280;22411;53.016;18.632;2023-04-08T04:24:30;101433.25;;;4.49;100.00
36380;BME280;22411;53.016;18.632;2023-04-08T04:26:57;101425.72;;;4.43;100.00
36380;BME280;22411;53.016;18.632;2023-04-08T04:29:23;101424.97;;;4.39;100.00
36380;BME280;22411;53.016;18.632;2023-04-08T04:31:49;101427.59;;;4.36;100.00
36380;BME280;22411;53.016;18.632;2023-04-08T04:34:15;101430.56;;;4.23;100.00
36380;BME280;22411;53.016;18.632;2023-04-08T04:36:42;101442.69;;;4.17;100.00
36380;BME280;22411;53.016;18.632;2023-04-08T04:39:08;101439.38;;;4.12;100.00
36380;BME280;22411;53.016;18.632;2023-04-08T04:41:35;101442.88;;;4.10;100.00
36380;BME280;22411;53.016;18.632;2023-04-08T04:44:05;101450.53;;;4.11;100.00
36380;BME280;22411;53.016;18.632;2023-04-08T04:46:32;101453.19;;;4.08;100.00
36380;BME280;22411;53.016;18.632;2023-04-08T04:48:59;101454.91;;;4.08;100.00
36380;BME280;22411;53.016;18.632;2023-04-08T04:51:25;101449.88;;;4.03;100.00
36380;BME280;22411;53.016;18.632;2023-04-08T04:53:52;101451.69;;;4.00;100.00
36380;BME280;22411;53.016;18.632;2023-04-08T04:56:24;101458.66;;;3.94;100.00
36380;BME280;22411;53.016;18.632;2023-04-08T04:58:51;101464.63;;;3.95;100.00
36380;BME280;22411;53.016;18.632;2023-04-08T05:01:18;101468.06;;;3.96;100.00
36380;BME280;22411;53.016;18.632;2023-04-08T05:03:44;101465.44;;;3.97;100.00
36380;BME280;22411;53.016;18.632;2023-04-08T05:06:10;101472.19;;;4.01;100.00
36380;BME280;22411;53.016;18.632;2023-04-08T05:08:37;101474.78;;;4.00;100.00
36380;BME280;22411;53.016;18.632;2023-04-08T05:11:08;101476.34;;;4.05;100.00
36380;BME280;22411;53.016;18.632;2023-04-08T05:13:35;101484.88;;;4.06;100.00
36380;BME280;22411;53.016;18.632;2023-04-08T05:16:03;101481.50;;;4.04;100.00
36380;BME280;22411;53.016;18.632;2023-04-08T05:18:29;101482.31;;;4.06;100.00
36380;BME280;22411;53.016;18.632;2023-04-08T05:20:55;101485.75;;;4.06;100.00
36380;BME280;22411;53.016;18.632;2023-04-08T05:23:24;101488.22;;;4.09;100.00
36380;BME280;22411;53.016;18.632;2023-04-08T05:25:51;101494.06;;;4.14;100.00
36380;BME280;22411;53.016;18.632;2023-04-08T05:28:22;101490.72;;;4.11;100.00
36380;BME280;22411;53.016;18.632;2023-04-08T05:30:50;101491.44;;;4.17;100.00
36380;BME280;22411;53.016;18.632;2023-04-08T05:33:18;101483.63;;;4.22;100.00
36380;BME280;22411;53.016;18.632;2023-04-08T05:35:44;101495.47;;;4.26;100.00
36380;BME280;22411;53.016;18.632;2023-04-08T05:38:11;101493.59;;;4.33;100.00
36380;BME280;22411;53.016;18.632;2023-04-08T05:40:37;101504.59;;;4.38;100.00
36380;BME280;22411;53.016;18.632;2023-04-08T05:43:04;101500.22;;;4.40;100.00
36380;BME280;22411;53.016;18.632;2023-04-08T05:45:31;101508.59;;;4.46;100.00
36380;BME280;22411;53.016;18.632;2023-04-08T05:47:57;101507.66;;;4.51;100.00
36380;BME280;22411;53.016;18.632;2023-04-08T05:50:23;101506.69;;;4.55;100.00
36380;BME280;22411;53.016;18.632;2023-04-08T05:52:50;101512.44;;;4.63;100.00
36380;BME280;22411;53.016;18.632;2023-04-08T05:55:16;101520.84;;;4.68;100.00
36380;BME280;22411;53.016;18.632;2023-04-08T05:57:43;101521.63;;;4.71;100.00
36380;BME280;22411;53.016;18.632;2023-04-08T06:00:10;101527.53;;;4.73;100.00
36380;BME280;22411;53.016;18.632;2023-04-08T06:02:37;101528.25;;;4.79;100.00
36380;BME280;22411;53.016;18.632;2023-04-08T06:05:06;101530.69;;;4.83;100.00
36380;BME280;22411;53.016;18.632;2023-04-08T06:07:36;101530.56;;;4.88;100.00
36380;BME280;22411;53.016;18.632;2023-04-08T06:10:02;101534.81;;;4.90;100.00
36380;BME280;22411;53.016;18.632;2023-04-08T06:12:35;101542.28;;;4.98;100.00
36380;BME280;22411;53.016;18.632;2023-04-08T06:15:02;101535.34;;;5.02;100.00
36380;BME280;22411;53.016;18.632;2023-04-08T06:17:30;101538.56;;;5.08;100.00
36380;BME280;22411;53.016;18.632;2023-04-08T06:20:01;101548.53;;;5.19;100.00
36380;BME280;22411;53.016;18.632;2023-04-08T06:22:29;101550.13;;;5.21;100.00
36380;BME280;22411;53.016;18.632;2023-04-08T06:24:57;101555.13;;;5.28;100.00
36380;BME280;22411;53.016;18.632;2023-04-08T06:27:31;101555.84;;;5.33;100.00
36380;BME280;22411;53.016;18.632;2023-04-08T06:29:58;101568.31;;;5.45;100.00
36380;BME280;22411;53.016;18.632;2023-04-08T06:32:25;101562.97;;;5.51;100.00
36380;BME280;22411;53.016;18.632;2023-04-08T06:34:51;101571.34;;;5.58;100.00
36380;BME280;22411;53.016;18.632;2023-04-08T06:37:18;101560.78;;;5.67;100.00
36380;BME280;22411;53.016;18.632;2023-04-08T06:39:44;101566.53;;;5.75;100.00
36380;BME280;22411;53.016;18.632;2023-04-08T06:42:11;101578.50;;;5.76;100.00
36380;BME280;22411;53.016;18.632;2023-04-08T06:44:37;101580.19;;;5.77;100.00
36380;BME280;22411;53.016;18.632;2023-04-08T06:47:07;101582.13;;;5.69;100.00
36380;BME280;22411;53.016;18.632;2023-04-08T06:49:33;101583.09;;;5.66;100.00
36380;BME280;22411;53.016;18.632;2023-04-08T06:52:01;101590.38;;;5.52;100.00
36380;BME280;22411;53.016;18.632;2023-04-08T06:54:27;101595.63;;;5.49;100.00
36380;BME280;22411;53.016;18.632;2023-04-08T06:56:53;101601.22;;;5.62;100.00
36380;BME280;22411;53.016;18.632;2023-04-08T06:59:20;101593.94;;;5.76;100.00
36380;BME280;22411;53.016;18.632;2023-04-08T07:01:46;101599.38;;;5.95;100.00
36380;BME280;22411;53.016;18.632;2023-04-08T07:04:13;101606.25;;;5.94;100.00
36380;BME280;22411;53.016;18.632;2023-04-08T07:06:40;101611.59;;;6.15;100.00
36380;BME280;22411;53.016;18.632;2023-04-08T07:09:05;101607.69;;;6.29;100.00
36380;BME280;22411;53.016;18.632;2023-04-08T07:11:32;101619.50;;;6.35;100.00
36380;BME280;22411;53.016;18.632;2023-04-08T07:13:59;101617.53;;;6.43;100.00
36380;BME280;22411;53.016;18.632;2023-04-08T07:16:25;101624.47;;;6.66;100.00
36380;BME280;22411;53.016;18.632;2023-04-08T07:18:51;101619.94;;;6.73;100.00
36380;BME280;22411;53.016;18.632;2023-04-08T07:21:18;101632.16;;;6.93;100.00
36380;BME280;22411;53.016;18.632;2023-04-08T07:23:43;101630.09;;;7.02;100.00
36380;BME280;22411;53.016;18.632;2023-04-08T07:26:10;101624.94;;;7.02;100.00
36380;BME280;22411;53.016;18.632;2023-04-08T07:28:36;101640.81;;;6.90;100.00
36380;BME280;22411;53.016;18.632;2023-04-08T07:31:15;101638.44;;;6.84;100.00
36380;BME280;22411;53.016;18.632;2023-04-08T07:33:42;101646.53;;;6.75;100.00
36380;BME280;22411;53.016;18.632;2023-04-08T07:36:09;101648.97;;;6.78;100.00
36380;BME280;22411;53.016;18.632;2023-04-08T07:38:37;101656.34;;;6.89;100.00
36380;BME280;22411;53.016;18.632;2023-04-08T07:41:03;101656.09;;;6.71;100.00
36380;BME280;22411;53.016;18.632;2023-04-08T07:43:32;101657.38;;;6.83;100.00
36380;BME280;22411;53.016;18.632;2023-04-08T07:46:05;101653.16;;;7.05;100.00
36380;BME280;22411;53.016;18.632;2023-04-08T07:48:32;101647.47;;;7.21;100.00
36380;BME280;22411;53.016;18.632;2023-04-08T07:51:07;101650.25;;;7.38;100.00
36380;BME280;22411;53.016;18.632;2023-04-08T07:53:34;101654.19;;;7.48;100.00
36380;BME280;22411;53.016;18.632;2023-04-08T07:56:01;101661.31;;;7.87;100.00
36380;BME280;22411;53.016;18.632;2023-04-08T07:58:30;101661.06;;;7.71;100.00
36380;BME280;22411;53.016;18.632;2023-04-08T08:00:57;101672.97;;;7.75;100.00
36380;BME280;22411;53.016;18.632;2023-04-08T08:03:23;101666.53;;;7.85;100.00
36380;BME280;22411;53.016;18.632;2023-04-08T08:05:50;101673.63;;;7.80;100.00
36380;BME280;22411;53.016;18.632;2023-04-08T08:08:16;101672.31;;;8.14;100.00
36380;BME280;22411;53.016;18.632;2023-04-08T08:10:43;101674.53;;;8.23;100.00
36380;BME280;22411;53.016;18.632;2023-04-08T08:13:09;101670.50;;;8.38;100.00
36380;BME280;22411;53.016;18.632;2023-04-08T08:15:37;101675.38;;;8.46;100.00
36380;BME280;22411;53.016;18.632;2023-04-08T08:18:03;101681.00;;;8.11;100.00
36380;BME280;22411;53.016;18.632;2023-04-08T08:20:30;101678.44;;;8.33;100.00
36380;BME280;22411;53.016;18.632;2023-04-08T08:22:57;101683.63;;;8.54;100.00
36380;BME280;22411;53.016;18.632;2023-04-08T08:25:23;101688.63;;;8.79;100.00
36380;BME280;22411;53.016;18.632;2023-04-08T08:27:49;101676.53;;;8.79;100.00
36380;BME280;22411;53.016;18.632;2023-04-08T08:30:16;101685.16;;;8.59;100.00
36380;BME280;22411;53.016;18.632;2023-04-08T08:32:44;101681.66;;;8.81;100.00
36380;BME280;22411;53.016;18.632;2023-04-08T08:35:10;101682.66;;;9.18;100.00
36380;BME280;22411;53.016;18.632;2023-04-08T08:37:36;101680.31;;;9.51;100.00
36380;BME280;22411;53.016;18.632;2023-04-08T08:40:02;101682.13;;;9.67;100.00
36380;BME280;22411;53.016;18.632;2023-04-08T08:42:28;101678.78;;;9.65;100.00
36380;BME280;22411;53.016;18.632;2023-04-08T08:44:55;101678.63;;;9.50;100.00
36380;BME280;22411;53.016;18.632;2023-04-08T08:47:21;101679.34;;;9.72;100.00
36380;BME280;22411;53.016;18.632;2023-04-08T08:49:47;101682.47;;;9.98;100.00
36380;BME280;22411;53.016;18.632;2023-04-08T08:52:17;101683.88;;;10.22;100.00
36380;BME280;22411;53.016;18.632;2023-04-08T08:54:44;101685.53;;;10.42;100.00
36380;BME280;22411;53.016;18.632;2023-04-08T08:57:20;101680.34;;;10.59;100.00
36380;BME280;22411;53.016;18.632;2023-04-08T08:59:46;101688.81;;;10.63;100.00
36380;BME280;22411;53.016;18.632;2023-04-08T09:02:26;101689.13;;;10.57;100.00
36380;BME280;22411;53.016;18.632;2023-04-08T09:04:58;101694.81;;;10.81;100.00
36380;BME280;22411;53.016;18.632;2023-04-08T09:07:25;101693.66;;;11.04;100.00
36380;BME280;22411;53.016;18.632;2023-04-08T09:09:53;101693.66;;;11.04;100.00
36380;BME280;22411;53.016;18.632;2023-04-08T09:12:19;101702.47;;;11.17;100.00
36380;BME280;22411;53.016;18.632;2023-04-08T09:14:46;101700.75;;;11.33;100.00
36380;BME280;22411;53.016;18.632;2023-04-08T09:17:13;101701.16;;;11.25;100.00
36380;BME280;22411;53.016;18.632;2023-04-08T09:25:22;101706.44;;;12.20;100.00
36380;BME280;22411;53.016;18.632;2023-04-08T09:27:49;101701.78;;;12.41;100.00
36380;BME280;22411;53.016;18.632;2023-04-08T09:30:17;101704.97;;;12.46;100.00
36380;BME280;22411;53.016;18.632;2023-04-08T09:32:53;101705.16;;;12.88;100.00
36380;BME280;22411;53.016;18.632;2023-04-08T09:35:20;101696.72;;;13.13;100.00
36380;BME280;22411;53.016;18.632;2023-04-08T09:37:47;101700.56;;;13.50;100.00
36380;BME280;22411;53.016;18.632;2023-04-08T09:40:14;101710.66;;;13.83;100.00
36380;BME280;22411;53.016;18.632;2023-04-08T09:42:44;101701.56;;;14.03;100.00
36380;BME280;22411;53.016;18.632;2023-04-08T09:45:12;101701.03;;;14.37;100.00
36380;BME280;22411;53.016;18.632;2023-04-08T09:47:47;101697.47;;;14.65;100.00
36380;BME280;22411;53.016;18.632;2023-04-08T09:50:19;101695.84;;;14.77;100.00
36380;BME280;22411;53.016;18.632;2023-04-08T09:52:53;101696.56;;;14.92;100.00
36380;BME280;22411;53.016;18.632;2023-04-08T09:55:23;101699.81;;;14.96;100.00
36380;BME280;22411;53.016;18.632;2023-04-08T09:57:58;101705.44;;;14.89;100.00
36380;BME280;22411;53.016;18.632;2023-04-08T10:00:33;101697.28;;;15.07;100.00
36380;BME280;22411;53.016;18.632;2023-04-08T10:03:09;101697.72;;;14.88;100.00
36380;BME280;22411;53.016;18.632;2023-04-08T10:05:42;101694.91;;;15.04;100.00
36380;BME280;22411;53.016;18.632;2023-04-08T10:08:08;101690.47;;;15.42;100.00
36380;BME280;22411;53.016;18.632;2023-04-08T10:10:37;101695.38;;;15.47;100.00
36380;BME280;22411;53.016;18.632;2023-04-08T10:13:05;101689.75;;;15.90;100.00
36380;BME280;22411;53.016;18.632;2023-04-08T10:15:35;101689.59;;;16.04;100.00
36380;BME280;22411;53.016;18.632;2023-04-08T10:23:07;101687.28;;;16.00;100.00
36380;BME280;22411;53.016;18.632;2023-04-08T10:25:37;101684.53;;;16.14;100.00
36380;BME280;22411;53.016;18.632;2023-04-08T10:28:24;101683.69;;;16.48;92.65
36380;BME280;22411;53.016;18.632;2023-04-08T10:30:55;101688.13;;;16.70;89.99
36380;BME280;22411;53.016;18.632;2023-04-08T10:33:30;101676.50;;;16.39;97.64
36380;BME280;22411;53.016;18.632;2023-04-08T10:38:37;101682.16;;;17.15;93.77
36380;BME280;22411;53.016;18.632;2023-04-08T10:41:03;101677.16;;;17.45;89.20
36380;BME280;22411;53.016;18.632;2023-04-08T10:43:33;101680.97;;;17.96;85.16
36380;BME280;22411;53.016;18.632;2023-04-08T10:45:59;101683.72;;;18.26;79.98
36380;BME280;22411;53.016;18.632;2023-04-08T10:48:26;101676.47;;;18.51;77.49
36380;BME280;22411;53.016;18.632;2023-04-08T10:51:02;101671.38;;;18.38;78.92
36380;BME280;22411;53.016;18.632;2023-04-08T10:53:33;101671.25;;;18.40;81.12
36380;BME280;22411;53.016;18.632;2023-04-08T10:56:11;101670.31;;;18.41;80.60
36380;BME280;22411;53.016;18.632;2023-04-08T10:58:52;101674.16;;;18.58;77.83
36380;BME280;22411;53.016;18.632;2023-04-08T11:01:19;101666.94;;;19.01;75.06
36380;BME280;22411;53.016;18.632;2023-04-08T11:03:46;101673.31;;;19.08;71.21
36380;BME280;22411;53.016;18.632;2023-04-08T11:06:12;101676.47;;;19.33;69.94
36380;BME280;22411;53.016;18.632;2023-04-08T11:08:39;101661.63;;;19.22;74.10
36380;BME280;22411;53.016;18.632;2023-04-08T11:11:06;101667.84;;;18.91;69.44
36380;BME280;22411;53.016;18.632;2023-04-08T11:13:38;101675.69;;;19.52;68.90
36380;BME280;22411;53.016;18.632;2023-04-08T11:16:09;101663.91;;;19.56;67.62
36380;BME280;22411;53.016;18.632;2023-04-08T11:18:39;101666.91;;;19.92;65.68
36380;BME280;22411;53.016;18.632;2023-04-08T11:21:09;101670.25;;;20.13;63.04
36380;BME280;22411;53.016;18.632;2023-04-08T11:23:36;101674.97;;;20.00;59.71
36380;BME280;22411;53.016;18.632;2023-04-08T11:26:02;101668.31;;;19.96;61.19
36380;BME280;22411;53.016;18.632;2023-04-08T11:28:29;101668.44;;;19.84;63.90
36380;BME280;22411;53.016;18.632;2023-04-08T11:30:56;101669.28;;;19.85;62.92
36380;BME280;22411;53.016;18.632;2023-04-08T11:33:25;101659.97;;;19.71;64.51
36380;BME280;22411;53.016;18.632;2023-04-08T11:35:54;101666.78;;;19.83;60.30
36380;BME280;22411;53.016;18.632;2023-04-08T11:38:22;101661.94;;;19.98;59.94
36380;BME280;22411;53.016;18.632;2023-04-08T11:40:57;101660.81;;;20.40;57.97
36380;BME280;22411;53.016;18.632;2023-04-08T11:43:24;101657.22;;;20.50;52.48
36380;BME280;22411;53.016;18.632;2023-04-08T11:45:51;101660.81;;;19.81;53.30
36380;BME280;22411;53.016;18.632;2023-04-08T11:48:17;101655.56;;;20.01;54.17
36380;BME280;22411;53.016;18.632;2023-04-08T11:50:44;101658.31;;;20.19;54.89
36380;BME280;22411;53.016;18.632;2023-04-08T11:55:44;101663.16;;;20.43;55.87
36380;BME280;22411;53.016;18.632;2023-04-08T11:58:11;101655.34;;;20.80;54.54
36380;BME280;22411;53.016;18.632;2023-04-08T12:00:37;101658.00;;;21.07;53.02
36380;BME280;22411;53.016;18.632;2023-04-08T12:03:04;101650.72;;;20.92;54.46
36380;BME280;22411;53.016;18.632;2023-04-08T12:05:31;101657.34;;;20.29;58.71
36380;BME280;22411;53.016;18.632;2023-04-08T12:07:57;101653.47;;;19.75;62.25
36380;BME280;22411;53.016;18.632;2023-04-08T12:10:23;101650.16;;;20.02;60.00
36380;BME280;22411;53.016;18.632;2023-04-08T12:12:50;101650.56;;;19.59;68.20
36380;BME280;22411;53.016;18.632;2023-04-08T12:15:17;101646.84;;;19.62;63.71
36380;BME280;22411;53.016;18.632;2023-04-08T12:17:43;101651.25;;;20.19;63.03
36380;BME280;22411;53.016;18.632;2023-04-08T12:20:10;101644.94;;;20.88;60.71
36380;BME280;22411;53.016;18.632;2023-04-08T12:22:37;101648.16;;;21.64;57.79
36380;BME280;22411;53.016;18.632;2023-04-08T12:25:03;101650.13;;;21.80;58.40
36380;BME280;22411;53.016;18.632;2023-04-08T12:27:30;101645.34;;;21.66;56.47
36380;BME280;22411;53.016;18.632;2023-04-08T12:30:02;101648.19;;;21.55;53.24
36380;BME280;22411;53.016;18.632;2023-04-08T12:32:30;101638.94;;;21.86;52.51
36380;BME280;22411;53.016;18.632;2023-04-08T12:34:56;101646.47;;;22.35;51.00
36380;BME280;22411;53.016;18.632;2023-04-08T12:37:24;101648.50;;;22.93;48.46
36380;BME280;22411;53.016;18.632;2023-04-08T12:39:50;101648.06;;;23.06;47.60
36380;BME280;22411;53.016;18.632;2023-04-08T12:42:16;101647.28;;;22.87;48.10
36380;BME280;22411;53.016;18.632;2023-04-08T12:44:43;101641.34;;;22.85;44.98
36380;BME280;22411;53.016;18.632;2023-04-08T12:47:12;101642.25;;;22.94;46.55
36380;BME280;22411;53.016;18.632;2023-04-08T12:49:43;101638.13;;;23.00;44.15
36380;BME280;22411;53.016;18.632;2023-04-08T12:52:11;101636.09;;;22.93;44.40
36380;BME280;22411;53.016;18.632;2023-04-08T12:54:39;101638.19;;;23.16;44.16
36380;BME280;22411;53.016;18.632;2023-04-08T12:57:06;101634.97;;;22.96;44.00
36380;BME280;22411;53.016;18.632;2023-04-08T12:59:33;101640.25;;;22.44;47.54
36380;BME280;22411;53.016;18.632;2023-04-08T13:02:00;101633.28;;;21.81;49.50
36380;BME280;22411;53.016;18.632;2023-04-08T13:04:27;101628.47;;;21.41;52.50